Time,TemperatureF,DewpointF,PressureIn,WindDirection,WindDirectionDegrees,WindSpeedMPH,WindSpeedGustMPH,Humidity,HourlyPrecipIn,Conditions,Clouds,dailyrainin,SoftwareType,DateUTC
2013-02-17 00:01:00,24.1,17.0,29.94,NE,45,0.0,-999.0,74,-99.99,,,0.00,Acu-Link.com,2013-02-17 05:01:00,
2013-02-17 00:16:00,23.7,17.3,29.94,NNE,22,0.0,-999.0,76,-99.99,,,0.00,Acu-Link.com,2013-02-17 05:16:00,
2013-02-17 00:31:00,23.5,17.7,29.94,North,0,0.0,-999.0,78,-99.99,,,0.00,Acu-Link.com,2013-02-17 05:31:00,
2013-02-17 00:47:00,22.8,17.3,29.95,West,270,0.0,-999.0,79,-99.99,,,0.00,Acu-Link.com,2013-02-17 05:47:00,
2013-02-17 01:02:00,22.3,17.1,29.95,NNW,337,0.0,-999.0,80,-99.99,,,0.00,Acu-Link.com,2013-02-17 06:02:00,
2013-02-17 01:17:00,21.9,17.3,29.95,WNW,292,2.2,-999.0,82,-99.99,,,0.00,Acu-Link.com,2013-02-17 06:17:00,
2013-02-17 01:32:00,21.9,17.5,29.95,ENE,67,0.0,-999.0,83,-99.99,,,0.00,Acu-Link.com,2013-02-17 06:32:00,
2013-02-17 01:47:00,21.6,17.0,29.95,NW,315,0.0,-999.0,82,-99.99,,,0.00,Acu-Link.com,2013-02-17 06:47:00,
2013-02-17 02:02:00,21.2,16.3,29.95,NE,45,0.0,-999.0,81,-99.99,,,0.00,Acu-Link.com,2013-02-17 07:02:00,
2013-02-17 02:18:00,20.8,16.5,29.95,ENE,67,0.0,-999.0,83,-99.99,,,0.00,Acu-Link.com,2013-02-17 07:18:00,
2013-02-17 02:33:00,20.8,17.0,29.96,West,270,0.0,-999.0,85,-99.99,,,0.00,Acu-Link.com,2013-02-17 07:33:00,
2013-02-17 02:48:00,20.8,15.3,29.96,NNE,22,0.0,-999.0,79,-99.99,,,0.00,Acu-Link.com,2013-02-17 07:48:00,
2013-02-17 03:03:00,21.9,14.0,29.96,WNW,292,1.7,-999.0,71,-99.99,,,0.00,Acu-Link.com,2013-02-17 08:03:00,
2013-02-17 03:18:00,23.2,13.2,29.97,East,90,1.7,-999.0,65,-99.99,,,0.00,Acu-Link.com,2013-02-17 08:18:00,
2013-02-17 03:33:00,23.4,13.0,29.98,ESE,112,0.0,-999.0,64,-99.99,,,0.00,Acu-Link.com,2013-02-17 08:33:00,
2013-02-17 03:48:00,23.4,12.3,29.99,NNE,22,0.0,-999.0,62,-99.99,,,0.00,Acu-Link.com,2013-02-17 08:48:00,
2013-02-17 04:17:00,23.2,11.8,29.99,South,180,0.0,-999.0,61,-99.99,,,0.00,Acu-Link.com,2013-02-17 09:17:00,
2013-02-17 04:32:00,22.1,11.5,29.98,NNE,22,0.0,-999.0,63,-99.99,,,0.00,Acu-Link.com,2013-02-17 09:32:00,
2013-02-17 04:47:00,21.6,11.0,29.99,WSW,247,0.0,-999.0,63,-99.99,,,0.00,Acu-Link.com,2013-02-17 09:47:00,
2013-02-17 05:02:00,21.2,11.3,29.99,SE,135,0.0,-999.0,65,-99.99,,,0.00,Acu-Link.com,2013-02-17 10:02:00,
2013-02-17 05:18:00,20.8,10.6,30.00,NNW,337,0.0,-999.0,64,-99.99,,,0.00,Acu-Link.com,2013-02-17 10:18:00,
2013-02-17 05:33:00,21.2,11.3,30.00,SSE,157,0.0,-999.0,65,-99.99,,,0.00,Acu-Link.com,2013-02-17 10:33:00,
2013-02-17 05:49:00,21.0,12.1,30.01,SSE,157,0.0,-999.0,68,-99.99,,,0.00,Acu-Link.com,2013-02-17 10:49:00,
2013-02-17 06:04:00,21.0,11.1,30.01,WNW,292,0.0,-999.0,65,-99.99,,,0.00,Acu-Link.com,2013-02-17 11:04:00,
2013-02-17 06:19:00,20.7,10.8,30.02,West,270,0.0,-999.0,65,-99.99,,,0.00,Acu-Link.com,2013-02-17 11:19:00,
2013-02-17 06:34:00,21.4,11.1,30.02,South,180,0.0,-999.0,64,-99.99,,,0.00,Acu-Link.com,2013-02-17 11:34:00,
2013-02-17 06:49:00,21.7,11.8,30.02,ESE,112,0.0,-999.0,65,-99.99,,,0.00,Acu-Link.com,2013-02-17 11:49:00,
2013-02-17 07:05:00,21.2,11.3,30.03,NE,45,0.0,-999.0,65,-99.99,,,0.00,Acu-Link.com,2013-02-17 12:05:00,
2013-02-17 07:20:00,20.8,11.3,30.03,West,270,0.0,-999.0,66,-99.99,,,0.00,Acu-Link.com,2013-02-17 12:20:00,
2013-02-17 07:35:00,20.7,11.5,30.04,NNW,337,0.0,-999.0,67,-99.99,,,0.00,Acu-Link.com,2013-02-17 12:35:00,
2013-02-17 07:50:00,21.4,13.2,30.04,East,90,0.0,-999.0,70,-99.99,,,0.00,Acu-Link.com,2013-02-17 12:50:00,
2013-02-17 08:05:00,26.8,17.7,30.04,WSW,247,0.0,-999.0,68,-99.99,,,0.00,Acu-Link.com,2013-02-17 13:05:00,
2013-02-17 08:20:00,33.8,21.0,30.05,ENE,67,0.0,-999.0,59,-99.99,,,0.00,Acu-Link.com,2013-02-17 13:20:00,
2013-02-17 08:36:00,36.9,20.0,30.05,SW,225,2.2,-999.0,50,-99.99,,,0.00,Acu-Link.com,2013-02-17 13:36:00,
2013-02-17 08:51:00,39.2,21.2,30.05,SSW,202,2.7,-999.0,48,-99.99,,,0.00,Acu-Link.com,2013-02-17 13:51:00,
2013-02-17 09:06:00,34.7,16.1,30.06,SW,225,1.1,-999.0,46,-99.99,,,0.00,Acu-Link.com,2013-02-17 14:06:00,
2013-02-17 09:21:00,35.1,15.4,30.06,West,270,2.7,-999.0,44,-99.99,,,0.00,Acu-Link.com,2013-02-17 14:21:00,
2013-02-17 09:36:00,36.1,16.3,30.06,WSW,247,3.7,-999.0,44,-99.99,,,0.00,Acu-Link.com,2013-02-17 14:36:00,
2013-02-17 09:51:00,37.9,16.3,30.07,SW,225,2.7,-999.0,41,-99.99,,,0.00,Acu-Link.com,2013-02-17 14:51:00,
2013-02-17 10:06:00,38.7,16.5,30.06,West,270,2.2,-999.0,40,-99.99,,,0.00,Acu-Link.com,2013-02-17 15:06:00,
2013-02-17 10:22:00,40.6,18.2,30.06,West,270,1.7,-999.0,40,-99.99,,,0.00,Acu-Link.com,2013-02-17 15:22:00,
2013-02-17 10:37:00,41.5,18.4,30.06,ESE,112,3.7,-999.0,39,-99.99,,,0.00,Acu-Link.com,2013-02-17 15:37:00,
2013-02-17 10:52:00,42.8,18.4,30.06,West,270,2.7,-999.0,37,-99.99,,,0.01,Acu-Link.com,2013-02-17 15:52:00,
2013-02-17 11:07:00,42.8,17.1,30.06,SW,225,4.2,-999.0,35,-99.99,,,0.01,Acu-Link.com,2013-02-17 16:07:00,
2013-02-17 11:22:00,42.6,14.1,30.06,West,270,2.7,-999.0,31,-99.99,,,0.02,Acu-Link.com,2013-02-17 16:22:00,
2013-02-17 11:37:00,43.3,16.2,30.06,WSW,247,3.7,-999.0,33,-99.99,,,0.02,Acu-Link.com,2013-02-17 16:37:00,
2013-02-17 11:52:00,45.5,19.5,30.04,West,270,1.7,-999.0,35,-99.99,,,0.03,Acu-Link.com,2013-02-17 16:52:00,
2013-02-17 12:07:00,44.1,16.1,30.04,SW,225,2.2,-999.0,32,-99.99,,,0.03,Acu-Link.com,2013-02-17 17:07:00,
2013-02-17 12:22:00,45.3,15.7,30.04,WNW,292,2.7,-999.0,30,-99.99,,,0.03,Acu-Link.com,2013-02-17 17:22:00,
2013-02-17 12:38:00,45.1,14.0,30.03,SSE,157,3.2,-999.0,28,-99.99,,,0.03,Acu-Link.com,2013-02-17 17:38:00,
2013-02-17 12:53:00,46.6,19.1,30.03,East,90,3.7,-999.0,33,-99.99,,,0.03,Acu-Link.com,2013-02-17 17:53:00,
2013-02-17 13:08:00,46.9,14.7,30.02,SW,225,5.3,-999.0,27,-99.99,,,0.03,Acu-Link.com,2013-02-17 18:08:00,
2013-02-17 13:23:00,47.1,15.7,30.01,WSW,247,2.7,-999.0,28,-99.99,,,0.03,Acu-Link.com,2013-02-17 18:23:00,
2013-02-17 13:38:00,47.8,13.7,30.01,West,270,2.7,-999.0,25,-99.99,,,0.03,Acu-Link.com,2013-02-17 18:38:00,
2013-02-17 13:53:00,48.0,14.8,30.00,West,270,3.7,-999.0,26,-99.99,,,0.03,Acu-Link.com,2013-02-17 18:53:00,
2013-02-17 14:08:00,47.5,10.6,30.00,SW,225,4.7,-999.0,22,-99.99,,,0.03,Acu-Link.com,2013-02-17 19:08:00,
2013-02-17 14:23:00,47.8,11.8,30.00,West,270,3.7,-999.0,23,-99.99,,,0.03,Acu-Link.com,2013-02-17 19:23:00,
2013-02-17 14:38:00,47.1,11.2,29.99,WSW,247,3.7,-999.0,23,-99.99,,,0.03,Acu-Link.com,2013-02-17 19:38:00,
2013-02-17 14:54:00,45.9,10.2,30.00,West,270,2.2,-999.0,23,-99.99,,,0.03,Acu-Link.com,2013-02-17 19:54:00,
2013-02-17 15:09:00,44.8,9.3,30.00,SW,225,2.7,-999.0,23,-99.99,,,0.03,Acu-Link.com,2013-02-17 20:09:00,
2013-02-17 15:24:00,47.3,12.4,30.00,NW,315,3.7,-999.0,24,-99.99,,,0.03,Acu-Link.com,2013-02-17 20:24:00,
2013-02-17 15:39:00,45.7,11.9,30.01,SW,225,4.2,-999.0,25,-99.99,,,0.03,Acu-Link.com,2013-02-17 20:39:00,
2013-02-17 15:54:00,45.0,12.2,30.02,NE,45,3.7,-999.0,26,-99.99,,,0.03,Acu-Link.com,2013-02-17 20:54:00,
2013-02-17 16:09:00,44.2,10.6,30.02,ESE,112,2.7,-999.0,25,-99.99,,,0.03,Acu-Link.com,2013-02-17 21:09:00,
2013-02-17 16:25:00,43.5,10.9,30.02,SW,225,2.7,-999.0,26,-99.99,,,0.03,Acu-Link.com,2013-02-17 21:25:00,
2013-02-17 16:40:00,43.7,11.9,30.03,West,270,0.0,-999.0,27,-99.99,,,0.03,Acu-Link.com,2013-02-17 21:40:00,
2013-02-17 16:55:00,42.8,12.8,30.03,North,0,2.7,-999.0,29,-99.99,,,0.03,Acu-Link.com,2013-02-17 21:55:00,
2013-02-17 17:10:00,41.9,12.0,30.03,West,270,1.7,-999.0,29,-99.99,,,0.03,Acu-Link.com,2013-02-17 22:10:00,
2013-02-17 17:25:00,41.2,12.9,30.04,West,270,2.7,-999.0,31,-99.99,,,0.03,Acu-Link.com,2013-02-17 22:25:00,
2013-02-17 17:40:00,40.3,12.8,30.05,NE,45,3.2,-999.0,32,-99.99,,,0.03,Acu-Link.com,2013-02-17 22:40:00,
2013-02-17 17:55:00,39.4,13.4,30.05,WNW,292,0.0,-999.0,34,-99.99,,,0.03,Acu-Link.com,2013-02-17 22:55:00,
2013-02-17 18:10:00,38.5,13.3,30.05,SW,225,0.0,-999.0,35,-99.99,,,0.03,Acu-Link.com,2013-02-17 23:10:00,
2013-02-17 18:25:00,37.4,12.9,30.06,West,270,1.1,-999.0,36,-99.99,,,0.03,Acu-Link.com,2013-02-17 23:25:00,
2013-02-17 18:41:00,36.1,13.0,30.06,NNW,337,0.0,-999.0,38,-99.99,,,0.03,Acu-Link.com,2013-02-17 23:41:00,
2013-02-17 18:56:00,34.9,13.1,30.07,NW,315,0.0,-999.0,40,-99.99,,,0.03,Acu-Link.com,2013-02-17 23:56:00,
2013-02-17 19:11:00,34.2,13.5,30.07,WNW,292,0.0,-999.0,42,-99.99,,,0.03,Acu-Link.com,2013-02-18 00:11:00,
2013-02-17 19:26:00,34.2,14.1,30.06,NE,45,0.0,-999.0,43,-99.99,,,0.03,Acu-Link.com,2013-02-18 00:26:00,
2013-02-17 19:41:00,33.3,13.2,30.08,East,90,1.7,-999.0,43,-99.99,,,0.03,Acu-Link.com,2013-02-18 00:41:00,
2013-02-17 19:56:00,32.4,14.9,30.09,East,90,0.0,-999.0,48,-99.99,,,0.03,Acu-Link.com,2013-02-18 00:56:00,
2013-02-17 20:11:00,30.9,14.5,30.09,West,270,0.0,-999.0,50,-99.99,,,0.03,Acu-Link.com,2013-02-18 01:11:00,
2013-02-17 20:26:00,29.3,13.4,30.10,SW,225,0.0,-999.0,51,-99.99,,,0.03,Acu-Link.com,2013-02-18 01:26:00,
2013-02-17 20:41:00,28.2,13.7,30.11,East,90,0.0,-999.0,54,-99.99,,,0.03,Acu-Link.com,2013-02-18 01:41:00,
2013-02-17 20:56:00,27.1,13.9,30.11,West,270,0.0,-999.0,57,-99.99,,,0.03,Acu-Link.com,2013-02-18 01:56:00,
2013-02-17 21:12:00,26.6,15.4,30.11,West,270,0.0,-999.0,62,-99.99,,,0.03,Acu-Link.com,2013-02-18 02:12:00,
2013-02-17 21:27:00,26.1,15.3,30.11,West,270,0.0,-999.0,63,-99.99,,,0.03,Acu-Link.com,2013-02-18 02:27:00,
2013-02-17 21:42:00,25.7,15.6,30.11,West,270,0.0,-999.0,65,-99.99,,,0.03,Acu-Link.com,2013-02-18 02:42:00,
2013-02-17 21:57:00,25.2,16.5,30.12,West,270,0.0,-999.0,69,-99.99,,,0.03,Acu-Link.com,2013-02-18 02:57:00,
2013-02-17 22:12:00,25.3,16.2,30.12,West,270,0.0,-999.0,68,-99.99,,,0.03,Acu-Link.com,2013-02-18 03:12:00,
2013-02-17 22:27:00,25.9,15.8,30.13,West,270,0.0,-999.0,65,-99.99,,,0.03,Acu-Link.com,2013-02-18 03:27:00,
2013-02-17 22:42:00,26.1,16.0,30.12,West,270,0.0,-999.0,65,-99.99,,,0.03,Acu-Link.com,2013-02-18 03:42:00,
2013-02-17 22:57:00,26.1,16.7,30.13,WSW,247,0.0,-999.0,67,-99.99,,,0.03,Acu-Link.com,2013-02-18 03:57:00,
2013-02-17 23:12:00,25.7,16.6,30.13,WSW,247,0.0,-999.0,68,-99.99,,,0.03,Acu-Link.com,2013-02-18 04:12:00,
2013-02-17 23:28:00,25.2,17.1,30.13,WSW,247,0.0,-999.0,71,-99.99,,,0.03,Acu-Link.com,2013-02-18 04:28:00,
2013-02-17 23:43:00,24.8,17.4,30.13,WNW,292,0.0,-999.0,73,-99.99,,,0.03,Acu-Link.com,2013-02-18 04:43:00,
2013-02-17 23:58:00,24.3,17.2,30.14,WNW,292,0.0,-999.0,74,-99.99,,,0.03,Acu-Link.com,2013-02-18 04:58:00,